sensor_id;sensor_type;location;lat;lon;timestamp;pressure;altitude;pressure_sealevel;temperature;humidity
29045;BME280;16133;49.486;12.176;2023-08-06T00:01:27;96286.56;;;13.28;100.00
29045;BME280;16133;49.486;12.176;2023-08-06T00:03:52;96282.06;;;13.29;100.00
29045;BME280;16133;49.486;12.176;2023-08-06T00:06:18;96272.22;;;13.29;100.00
29045;BME280;16133;49.486;12.176;2023-08-06T00:08:43;96268.75;;;13.29;100.00
29045;BME280;16133;49.486;12.176;2023-08-06T00:11:08;96266.88;;;13.29;100.00
29045;BME280;16133;49.486;12.176;2023-08-06T00:13:34;96272.22;;;13.29;100.00
29045;BME280;16133;49.486;12.176;2023-08-06T00:16:12;96263.16;;;13.30;100.00
29045;BME280;16133;49.486;12.176;2023-08-06T00:18:38;96267.47;;;13.31;100.00
29045;BME280;16133;49.486;12.176;2023-08-06T00:21:04;96264.81;;;13.31;100.00
29045;BME280;16133;49.486;12.176;2023-08-06T00:23:29;96265.03;;;13.30;100.00
29045;BME280;16133;49.486;12.176;2023-08-06T00:25:55;96263.63;;;13.27;100.00
29045;BME280;16133;49.486;12.176;2023-08-06T00:28:20;96264.66;;;13.26;100.00
29045;BME280;16133;49.486;12.176;2023-08-06T00:30:46;96264.88;;;13.25;100.00
29045;BME280;16133;49.486;12.176;2023-08-06T00:33:11;96270.78;;;13.27;100.00
29045;BME280;16133;49.486;12.176;2023-08-06T00:35:36;96264.81;;;13.31;100.00
29045;BME280;16133;49.486;12.176;2023-08-06T00:38:02;96271.91;;;13.37;100.00
29045;BME280;16133;49.486;12.176;2023-08-06T00:40:27;96274.47;;;13.44;100.00
29045;BME280;16133;49.486;12.176;2023-08-06T00:42:55;96266.25;;;13.46;100.00
29045;BME280;16133;49.486;12.176;2023-08-06T00:45:21;96271.06;;;13.55;100.00
29045;BME280;16133;49.486;12.176;2023-08-06T00:47:47;96273.03;;;13.60;100.00
29045;BME280;16133;49.486;12.176;2023-08-06T00:50:13;96267.25;;;13.63;100.00
29045;BME280;16133;49.486;12.176;2023-08-06T00:52:38;96260.66;;;13.65;100.00
29045;BME280;16133;49.486;12.176;2023-08-06T00:55:05;96259.41;;;13.68;100.00
29045;BME280;16133;49.486;12.176;2023-08-06T00:57:31;96261.25;;;13.67;100.00
29045;BME280;16133;49.486;12.176;2023-08-06T00:59:56;96263.66;;;13.69;100.00
29045;BME280;16133;49.486;12.176;2023-08-06T01:02:22;96258.13;;;13.70;100.00
29045;BME280;16133;49.486;12.176;2023-08-06T01:04:47;96257.91;;;13.72;100.00
29045;BME280;16133;49.486;12.176;2023-08-06T01:12:52;96243.66;;;13.78;100.00
29045;BME280;16133;49.486;12.176;2023-08-06T01:15:41;96253.66;;;13.82;100.00
29045;BME280;16133;49.486;12.176;2023-08-06T01:18:09;96242.53;;;13.85;100.00
29045;BME280;16133;49.486;12.176;2023-08-06T01:20:35;96260.72;;;13.88;100.00
29045;BME280;16133;49.486;12.176;2023-08-06T01:23:00;96260.72;;;13.88;100.00
29045;BME280;16133;49.486;12.176;2023-08-06T01:26:18;96258.41;;;13.92;100.00
29045;BME280;16133;49.486;12.176;2023-08-06T01:31:16;96252.72;;;13.88;100.00
29045;BME280;16133;49.486;12.176;2023-08-06T01:33:45;96250.88;;;13.89;100.00
29045;BME280;16133;49.486;12.176;2023-08-06T01:36:12;96257.47;;;13.86;100.00
29045;BME280;16133;49.486;12.176;2023-08-06T01:38:39;96253.84;;;13.81;100.00
29045;BME280;16133;49.486;12.176;2023-08-06T01:41:04;96255.34;;;13.77;100.00
29045;BME280;16133;49.486;12.176;2023-08-06T01:43:30;96256.50;;;13.69;100.00
29045;BME280;16133;49.486;12.176;2023-08-06T01:45:55;96252.09;;;13.63;100.00
29045;BME280;16133;49.486;12.176;2023-08-06T01:48:20;96245.56;;;13.59;100.00
29045;BME280;16133;49.486;12.176;2023-08-06T01:50:46;96241.72;;;13.55;100.00
29045;BME280;16133;49.486;12.176;2023-08-06T01:53:11;96236.25;;;13.50;100.00
29045;BME280;16133;49.486;12.176;2023-08-06T01:55:36;96230.13;;;13.50;100.00
29045;BME280;16133;49.486;12.176;2023-08-06T01:58:02;96226.06;;;13.47;100.00
29045;BME280;16133;49.486;12.176;2023-08-06T02:00:27;96223.84;;;13.44;100.00
29045;BME280;16133;49.486;12.176;2023-08-06T02:02:54;96209.72;;;13.44;100.00
29045;BME280;16133;49.486;12.176;2023-08-06T02:05:19;96203.22;;;13.39;100.00
29045;BME280;16133;49.486;12.176;2023-08-06T02:07:44;96214.09;;;13.38;100.00
29045;BME280;16133;49.486;12.176;2023-08-06T02:10:13;96208.19;;;13.36;100.00
29045;BME280;16133;49.486;12.176;2023-08-06T02:12:38;96194.88;;;13.36;100.00
29045;BME280;16133;49.486;12.176;2023-08-06T02:15:04;96197.75;;;13.34;100.00
29045;BME280;16133;49.486;12.176;2023-08-06T02:17:30;96187.31;;;13.33;100.00
29045;BME280;16133;49.486;12.176;2023-08-06T02:19:55;96192.66;;;13.33;100.00
29045;BME280;16133;49.486;12.176;2023-08-06T02:22:20;96190.56;;;13.35;100.00
29045;BME280;16133;49.486;12.176;2023-08-06T02:24:46;96186.88;;;13.36;100.00
29045;BME280;16133;49.486;12.176;2023-08-06T02:27:11;96187.09;;;13.34;100.00
29045;BME280;16133;49.486;12.176;2023-08-06T02:29:37;96188.50;;;13.37;100.00
29045;BME280;16133;49.486;12.176;2023-08-06T02:32:02;96180.72;;;13.35;100.00
29045;BME280;16133;49.486;12.176;2023-08-06T02:34:28;96165.56;;;13.36;100.00
29045;BME280;16133;49.486;12.176;2023-08-06T02:36:53;96163.91;;;13.35;100.00
29045;BME280;16133;49.486;12.176;2023-08-06T02:39:19;96158.03;;;13.33;100.00
29045;BME280;16133;49.486;12.176;2023-08-06T02:41:44;96163.09;;;13.34;100.00
29045;BME280;16133;49.486;12.176;2023-08-06T02:44:10;96167.63;;;13.34;100.00
29045;BME280;16133;49.486;12.176;2023-08-06T02:46:35;96164.75;;;13.35;100.00
29045;BME280;16133;49.486;12.176;2023-08-06T02:49:00;96174.56;;;13.35;100.00
29045;BME280;16133;49.486;12.176;2023-08-06T02:51:26;96174.56;;;13.35;100.00
29045;BME280;16133;49.486;12.176;2023-08-06T02:53:51;96165.78;;;13.34;100.00
29045;BME280;16133;49.486;12.176;2023-08-06T02:56:16;96171.91;;;13.35;100.00
29045;BME280;16133;49.486;12.176;2023-08-06T02:58:42;96166.59;;;13.35;100.00
29045;BME280;16133;49.486;12.176;2023-08-06T03:01:07;96165.78;;;13.34;100.00
29045;BME280;16133;49.486;12.176;2023-08-06T03:03:33;96155.13;;;13.34;100.00
29045;BME280;16133;49.486;12.176;2023-08-06T03:05:59;96150.84;;;13.33;100.00
29045;BME280;16133;49.486;12.176;2023-08-06T03:08:25;96148.97;;;13.34;100.00
29045;BME280;16133;49.486;12.176;2023-08-06T03:10:51;96154.28;;;13.34;100.00
29045;BME280;16133;49.486;12.176;2023-08-06T03:13:17;96153.50;;;13.33;100.00
29045;BME280;16133;49.486;12.176;2023-08-06T03:15:43;96158.03;;;13.33;100.00
29045;BME280;16133;49.486;12.176;2023-08-06T03:18:08;96157.22;;;13.32;100.00
29045;BME280;16133;49.486;12.176;2023-08-06T03:20:34;96160.09;;;13.31;100.00
29045;BME280;16133;49.486;12.176;2023-08-06T03:22:59;96159.50;;;13.29;100.00
29045;BME280;16133;49.486;12.176;2023-08-06T03:25:25;96154.19;;;13.29;100.00
29045;BME280;16133;49.486;12.176;2023-08-06T03:27:50;96161.56;;;13.27;100.00
29045;BME280;16133;49.486;12.176;2023-08-06T03:30:15;96153.00;;;13.25;100.00
29045;BME280;16133;49.486;12.176;2023-08-06T03:32:41;96160.19;;;13.24;100.00
29045;BME280;16133;49.486;12.176;2023-08-06T03:35:07;96165.50;;;13.24;100.00
29045;BME280;16133;49.486;12.176;2023-08-06T03:37:32;96152.28;;;13.18;100.00
29045;BME280;16133;49.486;12.176;2023-08-06T03:39:57;96157.16;;;13.21;100.00
29045;BME280;16133;49.486;12.176;2023-08-06T03:42:23;96153.69;;;13.20;100.00
29045;BME280;16133;49.486;12.176;2023-08-06T03:44:48;96148.34;;;13.20;100.00
29045;BME280;16133;49.486;12.176;2023-08-06T03:47:14;96153.91;;;13.19;100.00
29045;BME280;16133;49.486;12.176;2023-08-06T03:49:39;96150.88;;;13.15;100.00
29045;BME280;16133;49.486;12.176;2023-08-06T03:52:05;96158.66;;;13.17;100.00
29045;BME280;16133;49.486;12.176;2023-08-06T03:54:31;96162.34;;;13.16;100.00
29045;BME280;16133;49.486;12.176;2023-08-06T03:56:56;96160.72;;;13.15;100.00
29045;BME280;16133;49.486;12.176;2023-08-06T03:59:21;96154.59;;;13.14;100.00
29045;BME280;16133;49.486;12.176;2023-08-06T04:01:47;96156.91;;;13.11;100.00
29045;BME280;16133;49.486;12.176;2023-08-06T04:04:12;96157.94;;;13.10;100.00
29045;BME280;16133;49.486;12.176;2023-08-06T04:06:38;96148.28;;;13.09;100.00
29045;BME280;16133;49.486;12.176;2023-08-06T04:09:03;96160.59;;;13.10;100.00
29045;BME280;16133;49.486;12.176;2023-08-06T04:11:28;96152.59;;;13.10;100.00
29045;BME280;16133;49.486;12.176;2023-08-06T04:13:54;96156.47;;;13.07;100.00
29045;BME280;16133;49.486;12.176;2023-08-06T04:16:20;96152.44;;;13.05;100.00
29045;BME280;16133;49.486;12.176;2023-08-06T04:18:46;96156.13;;;13.04;100.00
29045;BME280;16133;49.486;12.176;2023-08-06T04:21:11;96160.88;;;13.02;100.00
29045;BME280;16133;49.486;12.176;2023-08-06T04:23:37;96159.25;;;13.01;100.00
29045;BME280;16133;49.486;12.176;2023-08-06T04:26:02;96159.50;;;12.99;100.00
29045;BME280;16133;49.486;12.176;2023-08-06T04:28:27;96156.00;;;12.99;100.00
29045;BME280;16133;49.486;12.176;2023-08-06T04:30:53;96151.94;;;12.96;100.00
29045;BME280;16133;49.486;12.176;2023-08-06T04:33:19;96154.59;;;12.96;100.00
29045;BME280;16133;49.486;12.176;2023-08-06T04:35:45;96151.94;;;12.96;100.00
29045;BME280;16133;49.486;12.176;2023-08-06T04:38:10;96148.44;;;12.95;100.00
29045;BME280;16133;49.486;12.176;2023-08-06T04:40:36;96150.91;;;12.97;100.00
29045;BME280;16133;49.486;12.176;2023-08-06T04:43:01;96144.28;;;13.00;100.00
29045;BME280;16133;49.486;12.176;2023-08-06T04:45:27;96141.22;;;13.03;100.00
29045;BME280;16133;49.486;12.176;2023-08-06T04:47:52;96139.13;;;13.05;100.00
29045;BME280;16133;49.486;12.176;2023-08-06T04:50:19;96142.97;;;13.09;100.00
29045;BME280;16133;49.486;12.176;2023-08-06T04:52:44;96136.75;;;13.15;100.00
29045;BME280;16133;49.486;12.176;2023-08-06T04:55:10;96142.22;;;13.20;100.00
29045;BME280;16133;49.486;12.176;2023-08-06T04:57:35;96129.84;;;13.25;100.00
29045;BME280;16133;49.486;12.176;2023-08-06T05:00:00;96135.66;;;13.34;100.00
29045;BME280;16133;49.486;12.176;2023-08-06T05:02:26;96137.16;;;13.41;100.00
29045;BME280;16133;49.486;12.176;2023-08-06T05:04:51;96136.03;;;13.49;100.00
29045;BME280;16133;49.486;12.176;2023-08-06T05:07:17;96138.97;;;13.59;100.00
29045;BME280;16133;49.486;12.176;2023-08-06T05:09:42;96133.88;;;13.69;100.00
29045;BME280;16133;49.486;12.176;2023-08-06T05:12:07;96132.84;;;13.82;100.00
29045;BME280;16133;49.486;12.176;2023-08-06T05:14:33;96130.19;;;13.94;100.00
29045;BME280;16133;49.486;12.176;2023-08-06T05:16:58;96132.03;;;14.05;100.00
29045;BME280;16133;49.486;12.176;2023-08-06T05:19:24;96132.50;;;14.13;100.00
29045;BME280;16133;49.486;12.176;2023-08-06T05:21:49;96130.06;;;14.23;100.00
29045;BME280;16133;49.486;12.176;2023-08-06T05:24:14;96125.41;;;14.30;100.00
29045;BME280;16133;49.486;12.176;2023-08-06T05:26:40;96119.53;;;14.40;100.00
29045;BME280;16133;49.486;12.176;2023-08-06T05:29:05;96126.69;;;14.51;100.00
29045;BME280;16133;49.486;12.176;2023-08-06T05:31:30;96125.84;;;14.62;100.00
29045;BME280;16133;49.486;12.176;2023-08-06T05:33:56;96125.50;;;14.70;100.00
29045;BME280;16133;49.486;12.176;2023-08-06T05:36:21;96125.69;;;14.80;100.00
29045;BME280;16133;49.486;12.176;2023-08-06T05:38:47;96122.16;;;14.92;100.00
29045;BME280;16133;49.486;12.176;2023-08-06T05:41:13;96114.34;;;15.02;100.00
29045;BME280;16133;49.486;12.176;2023-08-06T05:43:38;96116.66;;;15.10;100.00
29045;BME280;16133;49.486;12.176;2023-08-06T05:46:04;96115.78;;;15.21;100.00
29045;BME280;16133;49.486;12.176;2023-08-06T05:48:29;96116.03;;;15.36;100.00
29045;BME280;16133;49.486;12.176;2023-08-06T05:50:55;96112.63;;;15.52;100.00
29045;BME280;16133;49.486;12.176;2023-08-06T05:53:20;96105.94;;;15.71;100.00
29045;BME280;16133;49.486;12.176;2023-08-06T05:55:45;96098.25;;;15.92;100.00
29045;BME280;16133;49.486;12.176;2023-08-06T05:58:11;96084.94;;;16.13;100.00
29045;BME280;16133;49.486;12.176;2023-08-06T06:00:36;96084.66;;;16.32;100.00
29045;BME280;16133;49.486;12.176;2023-08-06T06:03:02;96078.66;;;16.46;100.00
29045;BME280;16133;49.486;12.176;2023-08-06T06:05:28;96079.88;;;16.55;100.00
29045;BME280;16133;49.486;12.176;2023-08-06T06:07:53;96068.34;;;16.55;100.00
29045;BME280;16133;49.486;12.176;2023-08-06T06:10:18;96087.03;;;16.71;100.00
29045;BME280;16133;49.486;12.176;2023-08-06T06:12:44;96088.94;;;16.71;100.00
29045;BME280;16133;49.486;12.176;2023-08-06T06:15:09;96085.03;;;16.84;100.00
29045;BME280;16133;49.486;12.176;2023-08-06T06:17:35;96073.19;;;16.80;100.00
29045;BME280;16133;49.486;12.176;2023-08-06T06:20:00;96093.22;;;16.94;100.00
29045;BME280;16133;49.486;12.176;2023-08-06T06:22:26;96104.22;;;16.97;100.00
29045;BME280;16133;49.486;12.176;2023-08-06T06:24:51;96120.84;;;16.99;100.00
29045;BME280;16133;49.486;12.176;2023-08-06T06:27:17;96130.31;;;17.07;100.00
29045;BME280;16133;49.486;12.176;2023-08-06T06:29:42;96136.34;;;17.19;100.00
29045;BME280;16133;49.486;12.176;2023-08-06T06:32:07;96137.25;;;17.30;100.00
29045;BME280;16133;49.486;12.176;2023-08-06T06:34:33;96154.25;;;17.40;100.00
29045;BME280;16133;49.486;12.176;2023-08-06T06:36:58;96163.22;;;17.51;100.00
29045;BME280;16133;49.486;12.176;2023-08-06T06:39:24;96171.16;;;17.62;100.00
29045;BME280;16133;49.486;12.176;2023-08-06T06:41:49;96185.19;;;17.75;100.00
29045;BME280;16133;49.486;12.176;2023-08-06T06:44:15;96186.41;;;17.89;100.00
29045;BME280;16133;49.486;12.176;2023-08-06T06:46:41;96198.34;;;18.03;100.00
29045;BME280;16133;49.486;12.176;2023-08-06T06:49:06;96208.66;;;18.16;100.00
29045;BME280;16133;49.486;12.176;2023-08-06T06:51:32;96234.47;;;18.22;100.00
29045;BME280;16133;49.486;12.176;2023-08-06T06:53:58;96251.19;;;18.29;100.00
29045;BME280;16133;49.486;12.176;2023-08-06T06:56:23;96252.63;;;18.42;100.00
29045;BME280;16133;49.486;12.176;2023-08-06T06:58:49;96261.34;;;18.54;100.00
29045;BME280;16133;49.486;12.176;2023-08-06T07:01:14;96295.81;;;18.62;100.00
29045;BME280;16133;49.486;12.176;2023-08-06T07:03:39;96311.94;;;18.67;100.00
29045;BME280;16133;49.486;12.176;2023-08-06T07:06:06;96328.88;;;18.68;100.00
29045;BME280;16133;49.486;12.176;2023-08-06T07:08:32;96326.47;;;18.66;100.00
29045;BME280;16133;49.486;12.176;2023-08-06T07:11:02;96341.72;;;18.60;100.00
29045;BME280;16133;49.486;12.176;2023-08-06T07:13:28;96351.06;;;18.53;100.00
29045;BME280;16133;49.486;12.176;2023-08-06T07:15:54;96357.84;;;18.34;100.00
29045;BME280;16133;49.486;12.176;2023-08-06T07:18:20;96358.81;;;18.23;100.00
29045;BME280;16133;49.486;12.176;2023-08-06T07:20:53;96355.53;;;18.21;100.00
29045;BME280;16133;49.486;12.176;2023-08-06T07:23:21;96351.00;;;18.21;100.00
29045;BME280;16133;49.486;12.176;2023-08-06T07:25:47;96350.00;;;18.27;100.00
29045;BME280;16133;49.486;12.176;2023-08-06T07:28:13;96350.84;;;18.33;100.00
29045;BME280;16133;49.486;12.176;2023-08-06T07:30:40;96364.38;;;18.43;100.00
29045;BME280;16133;49.486;12.176;2023-08-06T07:33:05;96352.53;;;18.66;100.00
29045;BME280;16133;49.486;12.176;2023-08-06T07:35:31;96358.03;;;18.86;100.00
29045;BME280;16133;49.486;12.176;2023-08-06T07:37:56;96366.53;;;19.04;100.00
29045;BME280;16133;49.486;12.176;2023-08-06T07:40:22;96380.09;;;19.20;100.00
29045;BME280;16133;49.486;12.176;2023-08-06T07:42:47;96394.53;;;19.45;100.00
29045;BME280;16133;49.486;12.176;2023-08-06T07:45:14;96379.38;;;19.76;100.00
29045;BME280;16133;49.486;12.176;2023-08-06T07:47:39;96380.25;;;19.92;100.00
29045;BME280;16133;49.486;12.176;2023-08-06T07:50:05;96378.13;;;20.09;100.00
29045;BME280;16133;49.486;12.176;2023-08-06T07:52:30;96370.91;;;20.20;100.00
29045;BME280;16133;49.486;12.176;2023-08-06T07:54:56;96378.69;;;20.16;100.00
29045;BME280;16133;49.486;12.176;2023-08-06T07:57:21;96381.66;;;20.15;100.00
29045;BME280;16133;49.486;12.176;2023-08-06T07:59:47;96382.47;;;20.15;100.00
29045;BME280;16133;49.486;12.176;2023-08-06T08:02:12;96391.31;;;20.05;100.00
29045;BME280;16133;49.486;12.176;2023-08-06T08:04:37;96399.09;;;19.97;100.00
29045;BME280;16133;49.486;12.176;2023-08-06T08:07:03;96388.09;;;20.03;100.00
29045;BME280;16133;49.486;12.176;2023-08-06T08:09:28;96384.03;;;19.96;100.00
29045;BME280;16133;49.486;12.176;2023-08-06T08:11:54;96377.63;;;20.12;100.00
29045;BME280;16133;49.486;12.176;2023-08-06T08:14:19;96388.41;;;20.17;100.00
29045;BME280;16133;49.486;12.176;2023-08-06T08:16:45;96379.50;;;20.12;100.00
29045;BME280;16133;49.486;12.176;2023-08-06T08:19:10;96373.94;;;20.43;100.00
29045;BME280;16133;49.486;12.176;2023-08-06T08:21:36;96380.97;;;20.55;100.00
29045;BME280;16133;49.486;12.176;2023-08-06T08:24:03;96378.78;;;20.36;100.00
29045;BME280;16133;49.486;12.176;2023-08-06T08:26:28;96387.88;;;20.25;100.00
29045;BME280;16133;49.486;12.176;2023-08-06T08:28:54;96390.56;;;20.15;100.00
29045;BME280;16133;49.486;12.176;2023-08-06T08:31:19;96391.31;;;20.00;100.00
29045;BME280;16133;49.486;12.176;2023-08-06T08:33:45;96394.16;;;19.74;100.00
29045;BME280;16133;49.486;12.176;2023-08-06T08:36:10;96389.03;;;19.30;100.00
29045;BME280;16133;49.486;12.176;2023-08-06T08:38:35;96391.13;;;18.86;100.00
29045;BME280;16133;49.486;12.176;2023-08-06T08:41:01;96385.66;;;18.49;100.00
29045;BME280;16133;49.486;12.176;2023-08-06T08:43:27;96391.19;;;18.38;100.00
29045;BME280;16133;49.486;12.176;2023-08-06T08:45:53;96382.31;;;18.37;100.00
29045;BME280;16133;49.486;12.176;2023-08-06T08:48:24;96373.84;;;18.50;100.00
29045;BME280;16133;49.486;12.176;2023-08-06T08:50:50;96369.03;;;18.79;100.00
29045;BME280;16133;49.486;12.176;2023-08-06T08:53:16;96375.09;;;18.96;100.00
29045;BME280;16133;49.486;12.176;2023-08-06T08:55:48;96374.69;;;19.15;100.00
29045;BME280;16133;49.486;12.176;2023-08-06T08:58:14;96386.34;;;19.30;100.00
29045;BME280;16133;49.486;12.176;2023-08-06T09:00:45;96382.44;;;19.48;100.00
29045;BME280;16133;49.486;12.176;2023-08-06T09:03:11;96381.41;;;19.59;100.00
29045;BME280;16133;49.486;12.176;2023-08-06T09:05:42;96378.00;;;19.79;95.87
29045;BME280;16133;49.486;12.176;2023-08-06T09:08:11;96384.03;;;20.01;95.30
29045;BME280;16133;49.486;12.176;2023-08-06T09:10:39;96369.38;;;20.39;92.62
29045;BME280;16133;49.486;12.176;2023-08-06T09:13:04;96367.50;;;20.75;88.78
29045;BME280;16133;49.486;12.176;2023-08-06T09:15:31;96364.28;;;20.98;87.55
29045;BME280;16133;49.486;12.176;2023-08-06T09:17:57;96371.03;;;21.21;81.55
29045;BME280;16133;49.486;12.176;2023-08-06T09:20:22;96368.63;;;21.14;79.57
29045;BME280;16133;49.486;12.176;2023-08-06T09:22:48;96366.44;;;21.21;75.84
29045;BME280;16133;49.486;12.176;2023-08-06T09:25:24;96364.53;;;21.07;75.31
29045;BME280;16133;49.486;12.176;2023-08-06T09:27:51;96365.06;;;20.93;75.88
29045;BME280;16133;49.486;12.176;2023-08-06T09:30:30;96352.97;;;20.81;74.21
29045;BME280;16133;49.486;12.176;2023-08-06T09:32:59;96350.25;;;20.86;76.85
29045;BME280;16133;49.486;12.176;2023-08-06T09:35:24;96339.19;;;21.03;73.38
29045;BME280;16133;49.486;12.176;2023-08-06T09:37:50;96338.88;;;21.44;74.09
29045;BME280;16133;49.486;12.176;2023-08-06T09:40:42;96329.50;;;22.01;68.30
29045;BME280;16133;49.486;12.176;2023-08-06T09:43:07;96319.63;;;22.25;67.18
29045;BME280;16133;49.486;12.176;2023-08-06T09:45:37;96325.53;;;22.32;65.89
29045;BME280;16133;49.486;12.176;2023-08-06T09:48:07;96332.00;;;22.36;63.54
29045;BME280;16133;49.486;12.176;2023-08-06T09:50:38;96323.06;;;21.82;63.70
29045;BME280;16133;49.486;12.176;2023-08-06T09:53:08;96328.94;;;21.10;67.51
29045;BME280;16133;49.486;12.176;2023-08-06T09:55:34;96341.88;;;20.52;68.48
29045;BME280;16133;49.486;12.176;2023-08-06T09:57:59;96347.97;;;20.07;68.84
29045;BME280;16133;49.486;12.176;2023-08-06T10:00:25;96350.28;;;19.73;71.31
29045;BME280;16133;49.486;12.176;2023-08-06T10:02:52;96344.75;;;19.48;71.92
29045;BME280;16133;49.486;12.176;2023-08-06T10:05:21;96348.63;;;19.20;74.83
29045;BME280;16133;49.486;12.176;2023-08-06T10:07:50;96343.19;;;19.10;78.51
29045;BME280;16133;49.486;12.176;2023-08-06T10:10:19;96327.63;;;19.17;82.47
29045;BME280;16133;49.486;12.176;2023-08-06T10:12:52;96334.81;;;19.48;84.28
29045;BME280;16133;49.486;12.176;2023-08-06T10:15:27;96321.59;;;20.04;85.48
29045;BME280;16133;49.486;12.176;2023-08-06T10:17:59;96310.34;;;20.68;83.46
29045;BME280;16133;49.486;12.176;2023-08-06T10:20:26;96316.25;;;21.25;80.61
29045;BME280;16133;49.486;12.176;2023-08-06T10:23:02;96315.59;;;21.59;72.43
29045;BME280;16133;49.486;12.176;2023-08-06T10:25:33;96322.16;;;21.42;70.16
29045;BME280;16133;49.486;12.176;2023-08-06T10:27:59;96335.69;;;21.17;74.20
29045;BME280;16133;49.486;12.176;2023-08-06T10:33:03;96350.16;;;19.43;87.88
29045;BME280;16133;49.486;12.176;2023-08-06T10:35:35;96352.91;;;18.79;89.44
29045;BME280;16133;49.486;12.176;2023-08-06T10:40:48;96342.78;;;18.33;96.41
29045;BME280;16133;49.486;12.176;2023-08-06T10:43:28;96333.88;;;18.54;100.00
29045;BME280;16133;49.486;12.176;2023-08-06T10:45:55;96336.22;;;18.77;95.26
29045;BME280;16133;49.486;12.176;2023-08-06T10:48:53;96329.47;;;19.12;99.20
29045;BME280;16133;49.486;12.176;2023-08-06T10:51:19;96328.28;;;19.34;97.39
29045;BME280;16133;49.486;12.176;2023-08-06T10:53:45;96334.31;;;19.56;95.29
29045;BME280;16133;49.486;12.176;2023-08-06T10:56:21;96335.53;;;19.91;93.54
29045;BME280;16133;49.486;12.176;2023-08-06T10:58:48;96320.22;;;20.07;91.37
29045;BME280;16133;49.486;12.176;2023-08-06T11:01:14;96317.03;;;20.15;90.52
29045;BME280;16133;49.486;12.176;2023-08-06T11:03:42;96313.78;;;20.13;90.77
29045;BME280;16133;49.486;12.176;2023-08-06T11:06:07;96318.59;;;20.05;91.36
29045;BME280;16133;49.486;12.176;2023-08-06T11:08:42;96316.97;;;19.94;81.33
29045;BME280;16133;49.486;12.176;2023-08-06T11:11:16;96317.38;;;19.56;86.60
29045;BME280;16133;49.486;12.176;2023-08-06T11:13:47;96314.94;;;19.60;91.67
29045;BME280;16133;49.486;12.176;2023-08-06T11:16:14;96320.44;;;19.80;88.89
29045;BME280;16133;49.486;12.176;2023-08-06T11:18:41;96310.28;;;20.17;91.11
29045;BME280;16133;49.486;12.176;2023-08-06T11:21:10;96313.56;;;20.39;87.62
29045;BME280;16133;49.486;12.176;2023-08-06T11:23:36;96311.97;;;20.38;84.42
29045;BME280;16133;49.486;12.176;2023-08-06T11:26:04;96320.00;;;20.23;83.44
29045;BME280;16133;49.486;12.176;2023-08-06T11:28:34;96319.97;;;20.03;80.31
29045;BME280;16133;49.486;12.176;2023-08-06T11:31:02;96328.00;;;19.88;81.71
29045;BME280;16133;49.486;12.176;2023-08-06T11:33:29;96307.22;;;19.78;80.11
29045;BME280;16133;49.486;12.176;2023-08-06T11:35:55;96311.31;;;20.01;78.78
29045;BME280;16133;49.486;12.176;2023-08-06T11:38:24;96313.59;;;20.34;82.27
29045;BME280;16133;49.486;12.176;2023-08-06T11:40:50;96310.88;;;20.29;82.37
29045;BME280;16133;49.486;12.176;2023-08-06T11:43:17;96317.38;;;20.48;84.56
29045;BME280;16133;49.486;12.176;2023-08-06T11:45:43;96318.97;;;20.90;83.63
29045;BME280;16133;49.486;12.176;2023-08-06T11:48:09;96317.63;;;20.92;79.45
29045;BME280;16133;49.486;12.176;2023-08-06T11:50:37;96315.75;;;20.88;80.91
29045;BME280;16133;49.486;12.176;2023-08-06T11:53:03;96316.00;;;21.02;79.88
29045;BME280;16133;49.486;12.176;2023-08-06T11:55:29;96314.66;;;21.14;80.14
29045;BME280;16133;49.486;12.176;2023-08-06T11:57:55;96306.56;;;21.14;79.91
29045;BME280;16133;49.486;12.176;2023-08-06T12:00:23;96314.63;;;21.24;80.78
29045;BME280;16133;49.486;12.176;2023-08-06T12:02:49;96305.47;;;21.25;80.14
29045;BME280;16133;49.486;12.176;2023-08-06T12:05:18;96309.75;;;21.31;80.26
29045;BME280;16133;49.486;12.176;2023-08-06T12:07:52;96320.56;;;21.21;79.48
29045;BME280;16133;49.486;12.176;2023-08-06T12:10:19;96312.47;;;21.06;78.38
29045;BME280;16133;49.486;12.176;2023-08-06T12:12:45;96310.09;;;20.84;75.68
29045;BME280;16133;49.486;12.176;2023-08-06T12:15:10;96313.31;;;20.66;78.79
29045;BME280;16133;49.486;12.176;2023-08-06T12:17:36;96324.91;;;20.51;80.70
29045;BME280;16133;49.486;12.176;2023-08-06T12:20:03;96314.13;;;20.36;81.86
29045;BME280;16133;49.486;12.176;2023-08-06T12:22:29;96310.91;;;20.75;83.93
29045;BME280;16133;49.486;12.176;2023-08-06T12:25:00;96307.34;;;21.10;83.14
29045;BME280;16133;49.486;12.176;2023-08-06T12:27:26;96300.56;;;21.42;81.17
29045;BME280;16133;49.486;12.176;2023-08-06T12:29:51;96301.22;;;21.73;79.48
29045;BME280;16133;49.486;12.176;2023-08-06T12:32:17;96293.72;;;22.19;77.63
29045;BME280;16133;49.486;12.176;2023-08-06T12:34:43;96286.38;;;22.69;77.60
29045;BME280;16133;49.486;12.176;2023-08-06T12:37:09;96284.47;;;22.98;75.13
29045;BME280;16133;49.486;12.176;2023-08-06T12:39:35;96285.69;;;22.82;71.65
29045;BME280;16133;49.486;12.176;2023-08-06T12:42:02;96284.59;;;22.10;76.47
29045;BME280;16133;49.486;12.176;2023-08-06T12:44:28;96288.66;;;21.54;77.04
29045;BME280;16133;49.486;12.176;2023-08-06T12:46:54;96295.78;;;20.99;81.53
29045;BME280;16133;49.486;12.176;2023-08-06T12:49:19;96288.81;;;20.58;80.84
29045;BME280;16133;49.486;12.176;2023-08-06T12:51:49;96303.88;;;20.33;81.48
29045;BME280;16133;49.486;12.176;2023-08-06T12:54:16;96301.38;;;20.17;80.93